Time;durP1;ratioP1;P1;durP2;ratioP2;P2;SDS_P1;SDS_P2;PMS_P1;PMS_P2;Temp;Humidity;BMP_temperature;BMP_pressure;BME280_temperature;BME280_humidity;BME280_pressure;Samples;Min_cycle;Max_cycle;Signal;HPM_P1;HPM_P2
2023/05/31 00:00:12;;;;;;;4.70;2.37;;;;;;;22.19;47.83;100562.00;5012010;28;20180;-63
2023/05/31 00:02:37;;;;;;;5.73;2.70;;;;;;;22.18;48.24;100558.31;5020004;28;20427;-63
2023/05/31 00:05:03;;;;;;;4.60;2.10;;;;;;;22.16;47.82;100549.25;5027431;28;20503;-62
2023/05/31 00:07:28;;;;;;;4.60;2.20;;;;;;;22.15;47.45;100547.63;5023091;28;20710;-62
2023/05/31 00:09:54;;;;;;;3.23;2.13;;;;;;;22.15;48.36;100538.16;5029456;28;20598;-62
2023/05/31 00:12:19;;;;;;;4.13;2.10;;;;;;;22.15;47.94;100546.78;5022663;28;21052;-62
2023/05/31 00:14:46;;;;;;;5.67;2.17;;;;;;;22.15;47.74;100541.03;5010847;28;20162;-63
2023/05/31 00:17:11;;;;;;;4.40;2.13;;;;;;;22.13;48.07;100535.66;5008356;28;20228;-63
2023/05/31 00:19:37;;;;;;;3.33;2.30;;;;;;;22.14;47.94;100531.59;5020433;28;20428;-63
2023/05/31 00:22:02;;;;;;;5.90;2.50;;;;;;;22.13;47.58;100531.97;4993994;28;20599;-62
2023/05/31 00:24:28;;;;;;;6.10;2.77;;;;;;;22.13;48.55;100532.78;5016306;28;20553;-62
2023/05/31 00:26:53;;;;;;;3.90;2.20;;;;;;;22.13;47.83;100534.84;5030811;28;20188;-62
2023/05/31 00:29:19;;;;;;;3.70;2.07;;;;;;;22.12;47.66;100536.09;5029513;28;20172;-62
2023/05/31 00:31:44;;;;;;;4.30;2.30;;;;;;;22.11;48.17;100535.25;5030607;28;20207;-63
2023/05/31 00:34:11;;;;;;;4.67;2.10;;;;;;;22.12;48.23;100542.66;5030799;28;20188;-62
2023/05/31 00:36:37;;;;;;;4.50;2.23;;;;;;;22.11;47.75;100545.91;5020622;28;20181;-62
2023/05/31 00:39:03;;;;;;;5.70;2.10;;;;;;;22.11;47.90;100548.78;5010941;28;20443;-62
2023/05/31 00:41:28;;;;;;;4.43;2.43;;;;;;;22.10;47.70;100550.88;5014025;28;20192;-62
2023/05/31 00:43:53;;;;;;;6.40;2.20;;;;;;;22.11;47.65;100557.41;5027442;28;20191;-62
2023/05/31 00:46:25;;;;;;;5.03;1.70;;;;;;;22.10;47.97;100556.63;5017439;28;20184;-62
2023/05/31 00:48:51;;;;;;;5.70;1.93;;;;;;;22.10;48.16;100556.63;5012478;28;20291;-63
2023/05/31 00:51:16;;;;;;;4.00;1.90;;;;;;;22.09;48.36;100560.72;5011894;28;20813;-62
2023/05/31 00:53:43;;;;;;;5.17;2.27;;;;;;;22.10;48.12;100556.63;5011068;28;20165;-62
2023/05/31 00:56:08;;;;;;;5.93;2.17;;;;;;;22.10;47.70;100559.50;5018057;28;20180;-62
2023/05/31 00:58:36;;;;;;;7.20;2.20;;;;;;;22.09;48.24;100554.13;5030420;28;20469;-62
2023/05/31 01:01:02;;;;;;;3.23;1.83;;;;;;;22.09;47.94;100557.84;5008467;28;20184;-62
2023/05/31 01:03:27;;;;;;;4.30;2.27;;;;;;;22.09;47.70;100557.00;5029289;28;20790;-62
2023/05/31 01:05:53;;;;;;;7.40;2.53;;;;;;;22.07;47.59;100554.53;5028477;28;20430;-62
2023/05/31 01:08:19;;;;;;;4.70;2.10;;;;;;;22.08;48.20;100555.38;5025629;28;20222;-63
2023/05/31 01:10:44;;;;;;;4.07;2.47;;;;;;;22.07;48.35;100551.66;5011391;28;20672;-62
2023/05/31 01:13:28;;;;;;;4.97;2.20;;;;;;;22.07;47.93;100554.53;5023313;28;20478;-62
2023/05/31 01:16:01;;;;;;;6.00;2.13;;;;;;;22.06;48.06;100552.88;5009128;28;20291;-62
2023/05/31 01:18:32;;;;;;;3.77;2.23;;;;;;;22.06;47.98;100560.66;4992668;28;20409;-62
2023/05/31 01:20:57;;;;;;;2.97;1.90;;;;;;;22.05;47.79;100551.25;4993184;28;20447;-63
2023/05/31 01:23:57;;;;;;;4.20;2.10;;;;;;;22.05;47.64;100554.09;5017395;28;20803;-62
2023/05/31 01:26:34;;;;;;;3.73;1.90;;;;;;;22.04;47.96;100549.59;5029278;28;20180;-62
2023/05/31 01:29:01;;;;;;;3.03;1.70;;;;;;;22.03;47.20;100544.22;5016952;28;20650;-63
2023/05/31 01:31:26;;;;;;;4.10;1.73;;;;;;;22.02;47.02;100546.28;5008998;28;20498;-62
2023/05/31 01:33:52;;;;;;;5.20;2.37;;;;;;;22.03;47.84;100545.03;4992776;28;20503;-63
2023/05/31 01:36:17;;;;;;;4.27;2.03;;;;;;;22.03;47.49;100547.91;5019643;28;20195;-63
2023/05/31 01:38:43;;;;;;;5.23;2.30;;;;;;;22.02;47.82;100546.28;5012076;28;20251;-62
2023/05/31 01:41:08;;;;;;;5.13;1.87;;;;;;;22.03;47.27;100549.97;5009618;28;20169;-62
2023/05/31 01:43:35;;;;;;;5.30;2.30;;;;;;;22.02;47.49;100554.91;5013640;28;20188;-62
2023/05/31 01:46:01;;;;;;;6.40;2.10;;;;;;;22.01;47.16;100559.00;5007986;28;20204;-62
2023/05/31 01:48:26;;;;;;;3.80;2.17;;;;;;;22.01;47.84;100556.13;5011352;28;20675;-62
2023/05/31 01:50:52;;;;;;;6.90;2.20;;;;;;;22.01;47.83;100555.28;5008921;28;20204;-63
2023/05/31 01:53:18;;;;;;;4.50;2.37;;;;;;;22.00;46.88;100557.34;4991183;28;20188;-63
2023/05/31 01:55:43;;;;;;;6.13;2.30;;;;;;;22.00;47.51;100556.53;5014257;28;20176;-63
2023/05/31 01:58:09;;;;;;;3.30;1.93;;;;;;;21.99;47.81;100549.97;5010953;28;20173;-62
2023/05/31 02:00:35;;;;;;;4.60;1.97;;;;;;;21.97;46.96;100549.50;5020089;28;20191;-62
2023/05/31 02:03:01;;;;;;;4.23;2.00;;;;;;;21.99;48.10;100554.88;5027474;28;20787;-63
2023/05/31 02:05:26;;;;;;;4.80;2.27;;;;;;;21.98;47.85;100553.22;5008869;28;20200;-63
2023/05/31 02:07:53;;;;;;;6.60;2.57;;;;;;;21.98;47.18;100550.34;5011191;28;20189;-62
2023/05/31 02:10:19;;;;;;;3.73;1.67;;;;;;;21.98;47.92;100553.22;5011463;28;20283;-62
2023/05/31 02:12:45;;;;;;;5.17;2.20;;;;;;;21.97;47.38;100555.25;5008034;28;20468;-62
2023/05/31 02:15:12;;;;;;;4.70;2.10;;;;;;;21.99;47.76;100554.88;5011381;28;20227;-62
2023/05/31 02:17:40;;;;;;;3.47;1.90;;;;;;;21.98;48.08;100547.47;5007261;28;20176;-62
2023/05/31 02:20:11;;;;;;;6.23;2.03;;;;;;;21.97;48.00;100543.75;5008305;28;20420;-63
2023/05/31 02:22:36;;;;;;;6.17;2.27;;;;;;;21.97;47.90;100540.88;5007374;28;20408;-63
2023/05/31 02:25:02;;;;;;;3.20;2.10;;;;;;;21.96;46.99;100547.88;5014633;28;20495;-63
2023/05/31 02:27:28;;;;;;;7.27;2.10;;;;;;;21.96;47.30;100541.28;5028232;28;20181;-62
2023/05/31 02:29:54;;;;;;;5.33;2.13;;;;;;;21.95;48.20;100543.34;5022163;28;21117;-63
2023/05/31 02:32:19;;;;;;;4.67;1.80;;;;;;;21.95;47.90;100545.38;5018502;28;20452;-62
2023/05/31 02:34:45;;;;;;;3.93;2.10;;;;;;;21.95;48.29;100542.50;5009221;28;20545;-63
2023/05/31 02:37:10;;;;;;;3.20;1.80;;;;;;;21.94;48.28;100541.72;5008873;28;20172;-63
2023/05/31 02:39:36;;;;;;;3.80;1.63;;;;;;;21.95;47.95;100546.22;5009162;28;20196;-62
2023/05/31 02:42:02;;;;;;;5.23;2.23;;;;;;;21.95;48.29;100542.50;5013758;28;20188;-62
2023/05/31 02:44:27;;;;;;;3.97;1.83;;;;;;;21.95;47.99;100551.13;5028864;28;20176;-62
2023/05/31 02:46:53;;;;;;;2.87;1.57;;;;;;;21.95;47.85;100549.09;5024968;28;20180;-62
2023/05/31 02:49:18;;;;;;;4.73;2.27;;;;;;;21.94;48.14;100546.63;5026602;28;20181;-63
2023/05/31 02:51:44;;;;;;;5.23;2.20;;;;;;;21.94;47.89;100547.44;5025635;28;20200;-62
2023/05/31 02:54:09;;;;;;;6.43;2.10;;;;;;;21.94;48.04;100553.19;5028146;28;20169;-62
2023/05/31 02:56:35;;;;;;;4.90;2.10;;;;;;;21.93;47.68;100548.66;5016989;28;20199;-61
2023/05/31 02:59:00;;;;;;;3.13;1.70;;;;;;;21.92;48.22;100555.63;5028180;28;20172;-62
2023/05/31 03:01:26;;;;;;;5.07;1.67;;;;;;;21.92;48.37;100554.81;5027125;28;20160;-61
2023/05/31 03:03:51;;;;;;;4.73;2.20;;;;;;;21.91;46.86;100554.00;5016397;28;20215;-62
2023/05/31 03:06:19;;;;;;;2.97;1.87;;;;;;;21.91;47.58;100556.88;5015169;28;20204;-62
2023/05/31 03:08:44;;;;;;;3.90;1.83;;;;;;;21.91;47.79;100565.50;5008341;28;20208;-62
2023/05/31 03:11:10;;;;;;;8.80;2.20;;;;;;;21.90;47.17;100563.84;4989819;28;20487;-62
2023/05/31 03:13:35;;;;;;;4.10;1.77;;;;;;;21.91;47.12;100556.88;5011119;28;20188;-62
2023/05/31 03:16:01;;;;;;;5.73;2.20;;;;;;;21.89;47.70;100567.94;5008313;28;20161;-63
2023/05/31 03:18:26;;;;;;;4.70;1.97;;;;;;;21.90;47.55;100566.72;5009260;28;20189;-62
2023/05/31 03:20:52;;;;;;;5.47;1.93;;;;;;;21.90;47.39;100563.00;5008381;28;20165;-62
2023/05/31 03:23:17;;;;;;;4.60;1.90;;;;;;;21.89;47.54;100569.97;5014052;28;20892;-62
2023/05/31 03:25:43;;;;;;;5.07;2.33;;;;;;;21.87;47.40;100573.25;5020798;28;20184;-62
2023/05/31 03:28:08;;;;;;;5.63;2.00;;;;;;;21.88;47.06;100571.22;5027953;28;20165;-62
2023/05/31 03:30:33;;;;;;;4.53;2.23;;;;;;;21.88;46.89;100580.63;5018333;28;20204;-63
2023/05/31 03:33:00;;;;;;;4.47;1.60;;;;;;;21.88;47.64;100577.78;5008714;28;20169;-62
2023/05/31 03:35:25;;;;;;;3.97;2.03;;;;;;;21.87;47.28;100581.06;5007566;28;20177;-63
2023/05/31 03:37:52;;;;;;;3.00;1.67;;;;;;;21.88;48.10;100574.91;5005429;28;20463;-62
2023/05/31 03:40:17;;;;;;;4.57;2.00;;;;;;;21.88;47.63;100579.84;5020481;28;20177;-62
2023/05/31 03:42:43;;;;;;;3.97;1.87;;;;;;;21.86;47.22;100574.47;5024863;28;20463;-62
2023/05/31 03:45:09;;;;;;;4.87;2.03;;;;;;;21.85;47.01;100572.84;5014621;28;20181;-61
2023/05/31 03:47:35;;;;;;;3.60;2.10;;;;;;;21.85;47.14;100572.84;5007380;28;20161;-61
2023/05/31 03:50:01;;;;;;;5.90;2.07;;;;;;;21.84;47.66;100576.94;5009816;28;20192;-61
2023/05/31 03:52:26;;;;;;;6.03;2.20;;;;;;;21.84;47.24;100582.69;5008496;28;20931;-62
2023/05/31 03:54:51;;;;;;;4.13;2.00;;;;;;;21.83;47.81;100586.75;4997636;28;20532;-62
2023/05/31 03:57:17;;;;;;;4.90;2.83;;;;;;;21.85;47.87;100586.38;5023352;28;20557;-62
2023/05/31 03:59:42;;;;;;;3.83;1.90;;;;;;;21.84;48.03;100576.94;5023830;28;20196;-63
2023/05/31 04:02:08;;;;;;;4.10;1.80;;;;;;;21.85;48.18;100583.50;5008770;28;20251;-62
2023/05/31 04:04:33;;;;;;;3.50;1.80;;;;;;;21.84;48.18;100588.44;5015569;28;20306;-63
2023/05/31 04:06:59;;;;;;;4.03;2.07;;;;;;;21.84;47.95;100599.09;5026051;28;20162;-62
2023/05/31 04:09:24;;;;;;;5.17;2.30;;;;;;;21.85;48.19;100600.75;5029444;28;20212;-63
2023/05/31 04:11:50;;;;;;;4.13;2.00;;;;;;;21.84;48.37;100599.94;5013892;28;20688;-63
2023/05/31 04:14:15;;;;;;;5.90;2.50;;;;;;;21.84;47.86;100599.09;5011909;28;20233;-62
2023/05/31 04:16:41;;;;;;;5.27;1.93;;;;;;;21.84;47.26;100604.84;5011825;28;20247;-63
2023/05/31 04:19:06;;;;;;;4.60;2.20;;;;;;;21.83;47.18;100604.00;5011475;28;20172;-62
2023/05/31 04:21:32;;;;;;;5.27;2.13;;;;;;;21.84;47.86;100608.56;5012704;28;20173;-63
2023/05/31 04:23:58;;;;;;;5.77;1.93;;;;;;;21.83;47.77;100604.00;5030743;28;20187;-63
2023/05/31 04:26:24;;;;;;;4.13;2.30;;;;;;;21.83;47.96;100597.44;5030461;28;20238;-63
2023/05/31 04:28:53;;;;;;;4.33;1.97;;;;;;;21.84;47.82;100608.56;5019009;28;20427;-63
2023/05/31 04:31:19;;;;;;;4.07;1.90;;;;;;;21.85;48.27;100600.75;5011438;28;20236;-63
2023/05/31 04:33:44;;;;;;;4.70;2.07;;;;;;;21.86;47.90;100602.38;4993948;28;20903;-62
2023/05/31 04:36:10;;;;;;;7.23;2.23;;;;;;;21.87;47.69;100604.88;5027952;28;20183;-63
2023/05/31 04:38:35;;;;;;;5.33;2.20;;;;;;;21.87;47.51;100610.63;5020610;28;20267;-63
2023/05/31 04:41:01;;;;;;;3.53;1.97;;;;;;;21.89;47.88;100601.59;5010014;28;20180;-63
2023/05/31 04:43:26;;;;;;;4.80;2.10;;;;;;;21.88;48.17;100597.88;5022947;28;21004;-63
2023/05/31 04:45:53;;;;;;;4.30;2.00;;;;;;;21.89;48.32;100596.69;5013055;28;20188;-63
2023/05/31 04:48:19;;;;;;;7.67;2.23;;;;;;;21.89;48.46;100593.81;5009726;28;20921;-62
2023/05/31 04:50:46;;;;;;;3.00;1.63;;;;;;;21.89;48.45;100602.44;5013441;28;20863;-62
2023/05/31 04:53:11;;;;;;;4.03;1.60;;;;;;;21.88;49.56;100594.22;5011106;28;20419;-62
2023/05/31 04:55:37;;;;;;;3.40;1.97;;;;;;;21.88;49.42;100599.97;5009446;28;20435;-62
2023/05/31 04:58:02;;;;;;;3.87;1.60;;;;;;;21.86;49.48;100590.88;5025792;28;20718;-64
2023/05/31 05:00:28;;;;;;;3.20;1.77;;;;;;;21.84;49.29;100599.94;5028807;28;20591;-63
2023/05/31 05:02:53;;;;;;;4.13;2.07;;;;;;;21.82;49.04;100595.81;5012353;28;20814;-63
2023/05/31 05:05:19;;;;;;;4.63;2.10;;;;;;;21.82;49.42;100601.56;5030059;28;20177;-62
2023/05/31 05:07:44;;;;;;;7.13;2.27;;;;;;;21.80;49.56;100599.06;5028599;28;20168;-65
2023/05/31 05:10:10;;;;;;;6.60;2.30;;;;;;;21.81;49.54;100603.59;5015980;28;20759;-63
2023/05/31 05:12:36;;;;;;;5.03;2.27;;;;;;;21.81;49.89;100606.47;5016818;28;20228;-63
2023/05/31 05:15:02;;;;;;;4.70;2.13;;;;;;;21.81;49.53;100603.59;5015208;28;20207;-63
2023/05/31 05:17:27;;;;;;;4.43;2.50;;;;;;;21.81;49.69;100606.47;5015709;28;20272;-63
2023/05/31 05:19:53;;;;;;;5.20;2.20;;;;;;;21.81;49.06;100600.72;5019537;28;20794;-63
2023/05/31 05:22:18;;;;;;;7.03;2.70;;;;;;;21.82;49.20;100613.84;5019406;28;20181;-63
2023/05/31 05:24:44;;;;;;;4.83;2.37;;;;;;;21.83;48.88;100606.88;5019809;28;20180;-63
2023/05/31 05:27:09;;;;;;;3.73;1.90;;;;;;;21.84;49.03;100611.44;5016768;28;20960;-63
2023/05/31 05:29:35;;;;;;;4.23;2.53;;;;;;;21.86;48.93;100611.00;5007759;28;20173;-63
2023/05/31 05:32:00;;;;;;;4.47;2.20;;;;;;;21.83;47.09;100614.69;5011603;28;20208;-63
2023/05/31 05:34:26;;;;;;;4.33;2.10;;;;;;;21.91;48.30;100605.72;5035320;28;20675;-63
2023/05/31 05:36:54;;;;;;;6.63;2.97;;;;;;;22.09;48.50;100605.88;5020761;28;20173;-62
2023/05/31 05:39:21;;;;;;;5.43;2.63;;;;;;;22.38;49.74;100604.91;5023437;28;20191;-62
2023/05/31 05:41:46;;;;;;;6.80;2.97;;;;;;;22.37;47.59;100598.31;5018344;28;20490;-61
2023/05/31 05:44:11;;;;;;;10.23;3.13;;;;;;;22.23;49.11;100595.31;5012548;28;21171;-63
2023/05/31 05:46:37;;;;;;;5.40;2.47;;;;;;;22.10;47.24;100599.75;5024198;28;20172;-63
2023/05/31 05:49:02;;;;;;;7.07;2.40;;;;;;;22.02;46.08;100595.16;5009318;28;20185;-62
2023/05/31 05:51:28;;;;;;;5.33;2.27;;;;;;;21.89;45.12;100607.34;5011635;28;20219;-63
2023/05/31 05:53:53;;;;;;;11.37;2.53;;;;;;;21.90;44.84;100606.97;5025503;28;20231;-63
2023/05/31 05:56:19;;;;;;;9.40;3.10;;;;;;;21.93;44.71;100611.09;5027681;28;20195;-62
2023/05/31 05:58:46;;;;;;;7.60;2.53;;;;;;;21.85;44.77;100606.50;5017876;28;20193;-64
2023/05/31 06:01:12;;;;;;;8.40;2.43;;;;;;;21.82;43.89;100599.47;5010085;28;20240;-63
2023/05/31 06:03:39;;;;;;;6.00;2.60;;;;;;;21.84;43.46;100605.69;5011845;28;20558;-62
2023/05/31 06:06:04;;;;;;;10.93;2.50;;;;;;;21.82;42.29;100608.09;5022448;28;21236;-63
2023/05/31 06:08:30;;;;;;;7.00;2.40;;;;;;;21.84;42.97;100608.56;5022845;28;20553;-62
2023/05/31 06:10:55;;;;;;;7.73;2.27;;;;;;;21.85;43.58;100606.50;5015840;28;20236;-63
2023/05/31 06:13:21;;;;;;;5.33;3.03;;;;;;;21.87;43.23;100596.25;5009153;28;20660;-62
2023/05/31 06:15:46;;;;;;;6.67;2.67;;;;;;;21.90;42.96;100604.09;4994966;28;20181;-63
2023/05/31 06:18:12;;;;;;;5.87;2.83;;;;;;;21.88;43.96;100589.25;4979957;28;20173;-62
2023/05/31 06:20:37;;;;;;;5.03;2.20;;;;;;;21.88;43.96;100603.63;5000214;28;20201;-62
2023/05/31 06:23:03;;;;;;;11.73;2.37;;;;;;;21.83;43.82;100598.25;4982354;28;20192;-61
2023/05/31 06:25:28;;;;;;;5.70;2.60;;;;;;;21.84;43.77;100593.34;5000112;28;20212;-62
2023/05/31 06:27:57;;;;;;;7.43;2.27;;;;;;;21.81;43.01;100600.72;5000251;28;20189;-62
2023/05/31 06:30:22;;;;;;;8.30;2.37;;;;;;;21.84;45.08;100599.94;4990391;28;20204;-61
2023/05/31 06:32:48;;;;;;;8.63;2.70;;;;;;;21.86;44.86;100600.34;5008827;28;21214;-62
2023/05/31 06:35:13;;;;;;;6.63;2.77;;;;;;;21.84;43.92;100604.84;4997602;28;20526;-62
2023/05/31 06:37:39;;;;;;;8.27;2.30;;;;;;;21.73;42.98;100598.97;4995080;28;20192;-62
2023/05/31 06:40:06;;;;;;;7.63;2.20;;;;;;;21.69;44.36;100597.31;5003469;28;20185;-62
2023/05/31 06:42:32;;;;;;;11.77;2.50;;;;;;;21.74;45.09;100600.66;4988636;28;20544;-62
2023/05/31 06:44:57;;;;;;;6.17;2.30;;;;;;;21.81;45.37;100594.97;5014510;28;20440;-62
2023/05/31 06:47:23;;;;;;;4.90;1.83;;;;;;;21.86;44.60;100593.75;4990116;28;20657;-62
2023/05/31 06:49:49;;;;;;;7.63;2.40;;;;;;;21.87;45.93;100592.56;4996105;28;20404;-62
2023/05/31 06:52:14;;;;;;;9.63;2.70;;;;;;;21.82;44.17;100590.84;4994729;28;20193;-63
2023/05/31 06:54:40;;;;;;;4.50;2.00;;;;;;;21.84;46.01;100597.06;4965330;28;20188;-62
2023/05/31 06:57:05;;;;;;;8.70;2.37;;;;;;;21.87;45.67;100596.25;4979132;28;20189;-62
2023/05/31 06:59:31;;;;;;;4.80;2.00;;;;;;;21.91;45.27;100596.28;4971123;28;20190;-62
2023/05/31 07:01:56;;;;;;;6.07;2.50;;;;;;;21.91;46.31;100582.72;5013409;28;20181;-62
2023/05/31 07:04:22;;;;;;;4.17;2.10;;;;;;;21.94;46.40;100586.88;5005101;28;20193;-62
2023/05/31 07:06:48;;;;;;;8.67;2.27;;;;;;;21.94;45.85;100584.84;5008038;28;20161;-62
2023/05/31 07:09:13;;;;;;;8.27;2.00;;;;;;;21.94;45.98;100593.44;4988950;28;20201;-61
2023/05/31 07:11:39;;;;;;;4.27;1.97;;;;;;;21.94;47.21;100599.19;4995584;28;20948;-62
2023/05/31 07:14:05;;;;;;;5.47;2.13;;;;;;;21.93;46.01;100585.22;5019598;28;20184;-62
2023/05/31 07:16:30;;;;;;;3.90;1.80;;;;;;;21.93;46.25;100583.16;5026793;28;20437;-62
2023/05/31 07:18:56;;;;;;;7.43;2.67;;;;;;;21.93;46.68;100583.16;5022436;28;20811;-62
2023/05/31 07:21:21;;;;;;;6.30;2.10;;;;;;;21.92;46.90;100590.13;5009457;28;20235;-62
2023/05/31 07:23:47;;;;;;;8.33;2.40;;;;;;;21.93;46.84;100591.78;5008134;28;20181;-62
2023/05/31 07:26:12;;;;;;;3.90;2.30;;;;;;;21.95;46.42;100595.09;5008419;28;20548;-62
2023/05/31 07:28:38;;;;;;;4.47;1.70;;;;;;;21.96;46.60;100593.03;5012585;28;20225;-62
2023/05/31 07:31:03;;;;;;;6.93;2.53;;;;;;;21.95;46.90;100589.34;5016298;28;20211;-63
2023/05/31 07:33:29;;;;;;;5.37;2.27;;;;;;;21.95;46.85;100577.84;5027853;28;20152;-62
2023/05/31 07:35:56;;;;;;;7.90;3.00;;;;;;;21.95;46.87;100582.75;5025823;28;20499;-63
2023/05/31 07:38:21;;;;;;;3.93;2.50;;;;;;;21.94;46.70;100573.31;5026030;28;20236;-63
2023/05/31 07:40:47;;;;;;;6.33;2.53;;;;;;;21.95;47.39;100577.84;5019638;28;20435;-62
2023/05/31 07:43:13;;;;;;;4.90;1.90;;;;;;;21.95;46.79;100580.72;5024135;28;20245;-62
2023/05/31 07:45:39;;;;;;;7.67;2.60;;;;;;;21.95;47.91;100580.72;5030281;28;20163;-62
2023/05/31 07:48:04;;;;;;;7.53;2.10;;;;;;;21.95;48.22;100577.84;5031964;28;20496;-62
2023/05/31 07:50:30;;;;;;;8.40;2.03;;;;;;;21.96;47.11;100576.63;5012297;28;20472;-62
2023/05/31 07:52:55;;;;;;;4.10;2.07;;;;;;;21.96;47.20;100579.50;5011892;28;20284;-63
2023/05/31 07:55:21;;;;;;;6.77;2.20;;;;;;;21.95;47.86;100580.72;5021837;28;20184;-64
2023/05/31 07:57:46;;;;;;;4.67;1.93;;;;;;;21.95;47.64;100577.84;5011582;28;20510;-62
2023/05/31 08:00:15;;;;;;;4.30;2.10;;;;;;;21.95;47.42;100571.25;5011406;28;20169;-62
2023/05/31 08:02:41;;;;;;;7.00;2.10;;;;;;;21.94;47.59;100567.59;5011670;28;20224;-62
2023/05/31 08:05:07;;;;;;;5.27;2.27;;;;;;;21.94;47.57;100570.44;5009532;28;20408;-62
2023/05/31 08:07:33;;;;;;;5.10;2.40;;;;;;;21.95;48.28;100566.34;5012543;28;20471;-63
2023/05/31 08:09:58;;;;;;;5.37;2.30;;;;;;;21.95;47.52;100554.84;5011742;28;20483;-62
2023/05/31 08:12:23;;;;;;;6.80;2.13;;;;;;;21.95;47.83;100566.34;5018266;28;20354;-62
2023/05/31 08:14:49;;;;;;;4.80;1.97;;;;;;;21.94;47.47;100561.84;5019091;28;20184;-62
2023/05/31 08:17:16;;;;;;;4.40;2.10;;;;;;;21.96;47.90;100552.78;5016756;28;20580;-62
2023/05/31 08:19:41;;;;;;;5.10;2.53;;;;;;;21.95;47.65;100557.72;5020883;28;20424;-62
2023/05/31 08:22:07;;;;;;;5.30;2.63;;;;;;;21.94;48.11;100547.44;5010247;28;20606;-62
2023/05/31 08:24:33;;;;;;;5.70;2.40;;;;;;;21.94;48.34;100546.63;5012706;28;20197;-62
2023/05/31 08:26:58;;;;;;;5.27;2.10;;;;;;;21.95;47.83;100549.09;5023401;28;20430;-63
2023/05/31 08:29:24;;;;;;;5.50;2.30;;;;;;;21.97;47.43;100551.59;5025259;28;20189;-62
2023/05/31 08:31:49;;;;;;;5.90;2.57;;;;;;;21.97;48.14;100554.47;5015878;28;20196;-63
2023/05/31 08:34:15;;;;;;;5.07;2.20;;;;;;;21.98;47.91;100548.28;5027395;28;20184;-63
2023/05/31 08:36:40;;;;;;;6.40;2.17;;;;;;;21.98;47.79;100542.53;5024679;28;20195;-62
2023/05/31 08:39:08;;;;;;;10.17;2.50;;;;;;;21.97;47.75;100546.63;5019795;28;20195;-63
2023/05/31 08:41:43;;;;;;;5.50;2.10;;;;;;;21.98;47.76;100539.66;5013424;28;20240;-62
2023/05/31 08:44:08;;;;;;;4.30;2.40;;;;;;;21.98;47.71;100538.84;5011074;28;20475;-62
2023/05/31 08:46:34;;;;;;;5.00;2.63;;;;;;;21.98;47.96;100533.91;5009992;28;20942;-62
2023/05/31 08:49:09;;;;;;;5.50;2.30;;;;;;;21.98;47.72;100527.34;5014598;28;20192;-63
2023/05/31 08:51:34;;;;;;;5.37;2.30;;;;;;;21.97;48.11;100532.25;4993017;28;20196;-63
2023/05/31 08:54:01;;;;;;;5.87;2.13;;;;;;;21.99;47.92;100537.63;5014824;28;20459;-62
2023/05/31 08:56:27;;;;;;;8.17;2.97;;;;;;;21.99;48.25;100534.75;5017500;28;20193;-62
2023/05/31 08:58:52;;;;;;;9.23;2.20;;;;;;;21.99;47.68;100535.59;5011905;28;20432;-62
2023/05/31 09:01:18;;;;;;;5.00;2.53;;;;;;;21.99;47.72;100526.13;5009707;28;20259;-63
2023/05/31 09:03:44;;;;;;;6.60;2.17;;;;;;;22.00;47.86;100517.09;5013485;28;20213;-64
2023/05/31 09:06:09;;;;;;;6.30;2.33;;;;;;;21.99;48.15;100515.47;5025546;28;20192;-63
2023/05/31 09:08:34;;;;;;;16.07;2.73;;;;;;;21.99;48.00;100523.25;5015807;28;20219;-63
2023/05/31 09:11:01;;;;;;;4.47;2.30;;;;;;;22.00;48.36;100522.00;5001888;28;20219;-62
2023/05/31 09:13:26;;;;;;;6.03;2.63;;;;;;;22.00;48.20;100527.75;5018911;28;20666;-63
2023/05/31 09:15:52;;;;;;;4.23;2.10;;;;;;;21.99;48.25;100526.97;5007025;28;20416;-63
2023/05/31 09:18:21;;;;;;;6.60;2.37;;;;;;;22.00;48.42;100517.09;5019037;28;20185;-64
2023/05/31 09:20:47;;;;;;;6.20;2.10;;;;;;;22.00;48.72;100517.09;5023492;28;20186;-64
2023/05/31 09:23:13;;;;;;;6.80;2.87;;;;;;;22.00;48.13;100534.34;5016851;28;20431;-62
2023/05/31 09:25:52;;;;;;;10.80;2.87;;;;;;;22.01;48.31;100523.66;5026449;28;20450;-64
2023/05/31 09:28:18;;;;;;;5.23;2.43;;;;;;;22.03;48.29;100515.47;5021351;28;20196;-63
2023/05/31 09:30:44;;;;;;;4.23;2.20;;;;;;;22.02;48.34;100508.88;5010727;28;20472;-62
2023/05/31 09:33:10;;;;;;;6.30;2.10;;;;;;;22.02;48.21;100514.63;5018951;28;20494;-63
2023/05/31 09:35:36;;;;;;;4.40;2.10;;;;;;;22.02;48.23;100510.97;5011924;28;20181;-63
2023/05/31 09:38:05;;;;;;;5.10;2.23;;;;;;;22.02;48.71;100514.63;5019148;28;20518;-64
2023/05/31 09:40:32;;;;;;;5.90;2.50;;;;;;;22.03;48.27;100516.28;5009616;28;20174;-63
2023/05/31 09:42:57;;;;;;;5.53;2.30;;;;;;;22.03;48.20;100503.97;5011488;28;20431;-63
2023/05/31 09:45:23;;;;;;;4.70;2.17;;;;;;;22.04;48.47;100502.75;5021861;28;20443;-64
2023/05/31 09:47:49;;;;;;;6.23;2.30;;;;;;;22.04;48.51;100497.00;5022714;28;20533;-64
2023/05/31 09:50:21;;;;;;;5.10;2.37;;;;;;;22.05;47.97;100487.97;5008898;28;20438;-62
2023/05/31 09:52:49;;;;;;;4.80;2.30;;;;;;;22.04;48.31;100506.47;5012032;28;20632;-62
2023/05/31 09:55:15;;;;;;;4.17;2.20;;;;;;;22.04;48.60;100489.22;5023678;28;21188;-63
2023/05/31 09:57:41;;;;;;;6.50;2.10;;;;;;;22.06;48.67;100489.63;5011398;28;20741;-63
2023/05/31 10:00:20;;;;;;;4.97;2.00;;;;;;;22.06;49.09;100494.53;5016187;28;20447;-63
2023/05/31 10:02:53;;;;;;;4.10;1.90;;;;;;;22.08;49.03;100492.09;5027756;28;20193;-62
2023/05/31 10:05:19;;;;;;;5.47;2.50;;;;;;;22.07;49.30;100497.00;4996271;28;20428;-62
2023/05/31 10:07:47;;;;;;;11.13;3.13;;;;;;;22.08;48.78;100481.41;5014205;28;21006;-63
2023/05/31 10:10:13;;;;;;;7.60;2.23;;;;;;;22.08;48.65;100480.59;5021874;28;20958;-62
2023/05/31 10:12:51;;;;;;;11.97;2.40;;;;;;;22.09;48.89;100476.50;4999154;28;20522;-62
2023/05/31 10:15:27;;;;;;;7.40;2.70;;;;;;;22.11;48.84;100483.50;5000355;28;20192;-63
2023/05/31 10:18:01;;;;;;;9.63;2.37;;;;;;;22.09;48.90;100470.75;5012857;28;20436;-63
2023/05/31 10:20:39;;;;;;;6.00;2.40;;;;;;;22.12;48.89;100476.50;4997764;28;20468;-64
2023/05/31 10:23:05;;;;;;;5.60;2.60;;;;;;;22.11;48.91;100472.00;5020797;28;21045;-62
2023/05/31 10:25:37;;;;;;;7.23;2.87;;;;;;;22.12;48.75;100481.44;5020467;28;20427;-62
2023/05/31 10:28:10;;;;;;;5.20;2.20;;;;;;;22.11;48.85;100472.00;5010735;28;20515;-62
2023/05/31 10:30:36;;;;;;;8.40;2.80;;;;;;;22.11;48.90;100482.66;5014123;28;20472;-64
2023/05/31 10:33:09;;;;;;;4.43;2.40;;;;;;;22.10;48.73;100476.09;5024934;28;20466;-63
2023/05/31 10:35:35;;;;;;;5.07;2.23;;;;;;;22.12;49.04;100481.44;5018775;28;20560;-64
2023/05/31 10:38:01;;;;;;;6.90;2.73;;;;;;;22.12;48.11;100478.56;5008711;28;20447;-65
2023/05/31 10:40:36;;;;;;;5.47;2.60;;;;;;;22.13;48.49;100460.91;5023830;28;20176;-64
2023/05/31 10:43:11;;;;;;;6.80;2.80;;;;;;;22.12;48.76;100467.88;5020935;28;21283;-63
2023/05/31 10:46:00;;;;;;;5.63;2.60;;;;;;;22.14;48.86;100464.59;5015408;28;20445;-63
2023/05/31 10:48:39;;;;;;;5.37;2.83;;;;;;;22.16;48.83;100456.41;5010722;28;20510;-63
2023/05/31 10:51:06;;;;;;;5.60;1.90;;;;;;;22.15;48.74;100472.84;5016058;28;20887;-63
2023/05/31 10:53:36;;;;;;;4.93;2.23;;;;;;;22.15;48.65;100461.34;5014383;28;20539;-63
2023/05/31 10:56:05;;;;;;;6.60;2.80;;;;;;;22.18;48.44;100451.88;5015028;28;20439;-65
2023/05/31 10:58:36;;;;;;;6.30;3.27;;;;;;;22.16;48.76;100460.09;5021486;28;20435;-63
2023/05/31 11:01:04;;;;;;;5.17;2.53;;;;;;;22.15;48.82;100451.88;5015281;28;20485;-63
2023/05/31 11:03:31;;;;;;;8.13;2.93;;;;;;;22.17;48.33;100461.75;5020777;28;20493;-63
2023/05/31 11:06:06;;;;;;;5.20;2.70;;;;;;;22.18;48.71;100463.41;5013497;28;20534;-63
2023/05/31 11:08:32;;;;;;;5.57;3.13;;;;;;;22.19;48.04;100456.44;5012602;28;20993;-63
2023/05/31 11:11:31;;;;;;;4.23;2.37;;;;;;;22.18;48.33;100462.59;5016306;28;20522;-63
2023/05/31 11:14:02;;;;;;;7.90;2.70;;;;;;;22.17;48.79;100460.94;5026804;28;20196;-63
2023/05/31 11:16:27;;;;;;;7.90;2.87;;;;;;;22.18;48.48;100451.88;5014240;28;20455;-63
2023/05/31 11:19:06;;;;;;;4.47;2.70;;;;;;;22.21;48.49;100462.59;5015406;28;20476;-62
2023/05/31 11:22:07;;;;;;;4.30;2.50;;;;;;;22.21;48.14;100453.97;5017136;28;20180;-63